Time;durP1;ratioP1;P1;durP2;ratioP2;P2;SDS_P1;SDS_P2;PMS_P1;PMS_P2;Temp;Humidity;BMP_temperature;BMP_pressure;BME280_temperature;BME280_humidity;BME280_pressure;Samples;Min_cycle;Max_cycle;Signal;HPM_P1;HPM_P2
2023/01/28 00:03:53;;;;;;;24.52;11.90;;;;;;;1.23;77.22;98322.72;10581940;27;20066;-76
2023/01/28 00:09:13;;;;;;;24.35;12.10;;;;;;;1.22;77.21;98316.50;10575954;27;20063;-76
2023/01/28 00:14:34;;;;;;;24.52;11.60;;;;;;;1.20;77.21;98319.00;10591063;27;20400;-77
2023/01/28 00:19:55;;;;;;;27.08;12.73;;;;;;;1.16;77.37;98310.31;10625180;27;20114;-76
2023/01/28 00:25:18;;;;;;;23.42;12.18;;;;;;;1.21;77.29;98320.50;10611146;27;20062;-75
2023/01/28 00:30:39;;;;;;;22.70;11.13;;;;;;;1.20;76.99;98318.28;10599197;27;20048;-76
2023/01/28 00:36:00;;;;;;;28.90;12.88;;;;;;;1.19;77.56;98314.78;10597535;27;20039;-76
2023/01/28 00:41:23;;;;;;;24.45;11.07;;;;;;;1.21;76.89;98320.50;10612160;27;20051;-76
2023/01/28 00:46:44;;;;;;;24.65;11.65;;;;;;;1.24;77.23;98316.72;10627550;27;20043;-76
2023/01/28 00:52:05;;;;;;;28.95;12.38;;;;;;;1.22;77.09;98319.25;10604776;27;20426;-76
2023/01/28 00:57:26;;;;;;;24.27;11.82;;;;;;;1.18;77.09;98321.53;10641515;27;20132;-76
2023/01/28 01:02:47;;;;;;;28.75;13.32;;;;;;;1.19;76.97;98319.53;10642047;27;20087;-77
2023/01/28 01:08:07;;;;;;;29.48;13.55;;;;;;;1.17;77.26;98324.81;10619991;27;20480;-76
2023/01/28 01:13:29;;;;;;;26.27;12.43;;;;;;;1.13;77.59;98320.34;10628232;27;20095;-76
2023/01/28 01:18:51;;;;;;;30.42;14.45;;;;;;;1.15;77.36;98317.06;10627104;27;20112;-77
2023/01/28 01:24:12;;;;;;;34.38;14.07;;;;;;;1.17;77.23;98333.06;10617609;27;20042;-76
2023/01/28 01:29:33;;;;;;;31.05;15.20;;;;;;;1.14;77.47;98334.81;10631937;27;20176;-76
2023/01/28 01:34:54;;;;;;;31.05;13.93;;;;;;;1.16;76.99;98337.81;10631725;27;20537;-76
2023/01/28 01:40:15;;;;;;;31.85;13.70;;;;;;;1.13;77.15;98347.09;10616875;27;20043;-77
2023/01/28 01:45:36;;;;;;;35.47;15.10;;;;;;;1.14;77.19;98348.56;10631899;27;20069;-76
2023/01/28 01:50:59;;;;;;;28.92;13.60;;;;;;;1.11;77.56;98349.63;10645798;27;20098;-76
2023/01/28 01:56:21;;;;;;;34.42;15.02;;;;;;;1.09;77.01;98341.13;10618504;27;20059;-77
2023/01/28 02:01:44;;;;;;;31.70;14.15;;;;;;;1.13;77.04;98347.09;10625712;27;20034;-76
2023/01/28 02:07:05;;;;;;;32.15;14.13;;;;;;;1.11;77.38;98349.63;10643246;27;20063;-76
2023/01/28 02:12:31;;;;;;;26.92;13.18;;;;;;;1.15;77.18;98350.06;10642911;27;20072;-76
2023/01/28 02:17:53;;;;;;;32.92;14.20;;;;;;;1.15;76.97;98347.31;10657146;27;20046;-76
2023/01/28 02:23:20;;;;;;;28.42;13.38;;;;;;;1.21;77.42;98345.25;10642841;27;20043;-76
2023/01/28 02:29:21;;;;;;;28.80;13.40;;;;;;;1.22;77.74;98349.50;10657184;27;20050;-76
2023/01/28 02:34:56;;;;;;;28.63;13.85;;;;;;;1.19;77.57;98355.28;10635539;27;20503;-76
2023/01/28 02:40:21;;;;;;;;;;;;;;;1.16;77.80;98357.06;10642705;27;20114;-76
2023/01/28 02:51:36;;;;;;;29.92;14.55;;;;;;;1.16;77.81;98362.56;10658622;27;20447;-76
2023/01/28 02:57:05;;;;;;;30.27;13.82;;;;;;;1.20;77.50;98362.28;10670105;27;20480;-76
2023/01/28 03:02:33;;;;;;;29.50;13.05;;;;;;;1.18;77.32;98373.78;10641232;27;20396;-76
2023/01/28 03:07:55;;;;;;;28.40;13.52;;;;;;;1.19;77.84;98358.78;10640667;27;20412;-76
2023/01/28 03:42:10;;;;;;;24.55;11.45;;;;;;;1.09;77.66;98368.63;10631532;27;20419;-76
2023/01/28 03:47:44;;;;;;;27.58;11.80;;;;;;;1.12;77.95;98370.34;10628615;27;20047;-77
2023/01/28 03:53:14;;;;;;;23.50;12.38;;;;;;;1.17;77.86;98364.06;10610313;27;20049;-77
2023/01/28 03:58:51;;;;;;;23.33;11.32;;;;;;;1.19;77.66;98369.78;10629952;27;20046;-76
2023/01/28 04:04:22;;;;;;;23.30;11.20;;;;;;;1.18;77.16;98376.53;10625804;27;20527;-76
2023/01/28 04:09:44;;;;;;;22.55;11.18;;;;;;;1.21;77.80;98375.50;10639789;27;20045;-76
2023/01/28 04:15:31;;;;;;;24.13;11.15;;;;;;;1.23;77.87;98380.47;10645918;27;20043;-77
2023/01/28 04:20:52;;;;;;;20.88;10.85;;;;;;;1.30;77.98;98380.66;10623734;27;20049;-76
2023/01/28 04:26:14;;;;;;;20.95;11.48;;;;;;;1.27;77.51;98372.72;10623648;27;20038;-77
2023/01/28 04:31:35;;;;;;;24.15;11.00;;;;;;;1.33;78.00;98379.63;10623621;27;20073;-76
2023/01/28 04:37:22;;;;;;;20.10;9.40;;;;;;;1.37;77.87;98382.84;10624380;27;20046;-76
2023/01/28 04:43:01;;;;;;;18.98;9.20;;;;;;;1.34;77.21;98391.38;10641156;27;20135;-77
2023/01/28 04:48:48;;;;;;;17.73;9.07;;;;;;;1.22;77.47;98382.50;10649623;27;20054;-76
2023/01/28 04:54:34;;;;;;;18.15;8.27;;;;;;;1.21;77.36;98386.50;10620827;27;20496;-76
2023/01/28 05:00:15;;;;;;;17.63;8.02;;;;;;;1.27;77.99;98386.47;10646533;27;20046;-77
2023/01/28 05:05:36;;;;;;;14.02;6.88;;;;;;;1.28;77.98;98396.19;10632893;27;20050;-76
2023/01/28 05:11:12;;;;;;;17.35;7.63;;;;;;;1.28;77.76;98401.69;10648448;27;20043;-76
2023/01/28 05:16:33;;;;;;;14.05;6.72;;;;;;;1.32;77.16;98400.13;10644888;27;20476;-77
2023/01/28 05:21:56;;;;;;;14.05;7.00;;;;;;;1.32;77.47;98404.91;10631551;27;20562;-76
2023/01/28 05:27:40;;;;;;;13.43;6.70;;;;;;;1.30;77.95;98402.66;10648648;27;20030;-76
2023/01/28 05:33:02;;;;;;;13.55;6.32;;;;;;;1.36;77.68;98402.63;10624510;27;20050;-77
2023/01/28 05:38:23;;;;;;;12.88;5.75;;;;;;;1.33;77.57;98398.88;10643373;27;20528;-77
2023/01/28 05:43:45;;;;;;;12.48;5.25;;;;;;;1.38;77.63;98409.09;10584293;27;20050;-76
2023/01/28 05:49:29;;;;;;;11.57;6.13;;;;;;;1.38;77.70;98417.34;10591247;27;21376;-77
2023/01/28 05:55:04;;;;;;;10.63;5.05;;;;;;;1.33;78.00;98414.63;10613614;27;20039;-76
2023/01/28 06:00:26;;;;;;;10.10;5.07;;;;;;;1.32;77.88;98413.88;10581934;27;20046;-76
2023/01/28 06:05:48;;;;;;;9.82;5.03;;;;;;;1.30;77.68;98413.66;10581119;27;20039;-76
2023/01/28 06:11:09;;;;;;;9.85;5.18;;;;;;;1.30;77.78;98424.66;10581490;27;20043;-77
2023/01/28 06:16:31;;;;;;;9.27;5.05;;;;;;;1.34;77.53;98427.88;10567921;27;20061;-77
2023/01/28 06:22:21;;;;;;;9.90;5.07;;;;;;;1.25;77.72;98432.97;10541517;27;20051;-77
2023/01/28 06:27:42;;;;;;;10.52;4.75;;;;;;;1.24;77.51;98434.97;10575441;27;20035;-77
2023/01/28 06:33:03;;;;;;;10.27;5.22;;;;;;;1.23;77.63;98444.50;10580219;27;20061;-76
2023/01/28 06:38:24;;;;;;;8.63;4.00;;;;;;;1.26;77.26;98448.97;10594457;27;20077;-76
2023/01/28 06:43:45;;;;;;;8.70;4.18;;;;;;;1.27;77.36;98446.97;10579926;27;20058;-77
2023/01/28 06:49:06;;;;;;;6.50;4.10;;;;;;;1.29;77.16;98447.19;10590219;27;20486;-77
2023/01/28 06:54:28;;;;;;;6.38;4.03;;;;;;;1.24;77.67;98456.97;10542055;28;20378;-77
2023/01/28 06:59:49;;;;;;;7.63;3.92;;;;;;;1.27;77.27;98461.47;10556253;28;20046;-77
2023/01/28 07:05:10;;;;;;;6.32;3.50;;;;;;;1.25;77.49;98468.72;10539344;28;20405;-77
2023/01/28 07:10:31;;;;;;;6.88;4.38;;;;;;;1.28;77.15;98479.47;10541834;28;20393;-77
2023/01/28 07:15:51;;;;;;;4.63;3.33;;;;;;;1.30;77.55;98481.69;10540787;28;20055;-77
2023/01/28 07:21:12;;;;;;;4.63;3.38;;;;;;;1.28;77.07;98484.22;10539897;28;20048;-77
2023/01/28 07:26:33;;;;;;;6.20;3.42;;;;;;;1.27;77.51;98488.97;10540763;28;20035;-77
2023/01/28 07:31:54;;;;;;;7.20;4.20;;;;;;;1.33;76.99;98486.91;10569893;27;20059;-78
2023/01/28 07:37:15;;;;;;;6.72;3.65;;;;;;;1.28;76.73;98495.22;10582890;27;20043;-77
2023/01/28 07:42:35;;;;;;;4.35;2.92;;;;;;;1.31;76.73;98503.19;10582184;27;20496;-77
2023/01/28 07:48:00;;;;;;;5.25;2.67;;;;;;;1.38;76.63;98504.63;10583085;27;20047;-77
2023/01/28 07:53:21;;;;;;;4.25;3.00;;;;;;;1.36;75.94;98499.66;10582648;27;20097;-76
2023/01/28 07:58:42;;;;;;;3.67;2.47;;;;;;;1.36;76.14;98512.66;10596227;27;20042;-75
2023/01/28 08:04:03;;;;;;;6.03;3.42;;;;;;;1.32;76.26;98512.91;10581487;27;20043;-76
2023/01/28 08:09:24;;;;;;;5.80;3.28;;;;;;;1.30;76.21;98512.69;10584285;27;20099;-75
2023/01/28 08:14:45;;;;;;;6.20;3.85;;;;;;;1.33;75.72;98530.91;10595921;27;20050;-75
2023/01/28 08:20:07;;;;;;;4.82;2.88;;;;;;;1.38;75.68;98538.38;10595476;27;20092;-76
2023/01/28 08:25:28;;;;;;;4.07;2.90;;;;;;;1.41;74.66;98531.84;10581256;27;20067;-75
2023/01/28 08:30:49;;;;;;;3.63;2.10;;;;;;;1.43;74.98;98539.59;10580981;27;20126;-75
2023/01/28 08:36:10;;;;;;;3.95;2.45;;;;;;;1.37;74.84;98538.91;10581104;27;20086;-77
2023/01/28 08:41:30;;;;;;;4.05;2.28;;;;;;;1.35;74.59;98550.44;10578793;27;20047;-75
2023/01/28 08:46:51;;;;;;;4.57;3.00;;;;;;;1.22;74.10;98544.00;10580555;28;20469;-75
2023/01/28 08:52:12;;;;;;;5.03;2.80;;;;;;;1.22;74.38;98550.25;10602680;27;20035;-77
2023/01/28 08:57:33;;;;;;;5.72;2.92;;;;;;;1.22;75.17;98561.25;10584110;27;20047;-78
2023/01/28 09:02:53;;;;;;;4.68;2.65;;;;;;;1.27;74.63;98565.25;10580184;28;20092;-77
2023/01/28 09:08:15;;;;;;;5.93;3.10;;;;;;;1.37;74.11;98578.16;10573363;27;20046;-77
2023/01/28 09:13:35;;;;;;;5.18;3.20;;;;;;;1.37;74.04;98571.91;10605911;27;20459;-77
2023/01/28 09:18:56;;;;;;;5.63;3.08;;;;;;;1.31;74.01;98574.69;10576358;28;20047;-77
2023/01/28 09:24:17;;;;;;;7.22;3.08;;;;;;;1.46;73.99;98576.34;10565246;28;20039;-77
2023/01/28 09:29:38;;;;;;;6.50;2.78;;;;;;;1.48;74.51;98582.81;10580150;28;20043;-77
2023/01/28 09:34:59;;;;;;;5.43;2.83;;;;;;;1.43;74.59;98594.59;10608382;28;20051;-77
2023/01/28 09:40:27;;;;;;;4.55;2.38;;;;;;;1.49;74.83;98602.84;10583946;27;20046;-77
2023/01/28 09:45:48;;;;;;;6.10;2.83;;;;;;;1.51;74.24;98600.31;10615958;27;20134;-77
2023/01/28 09:51:16;;;;;;;4.50;2.47;;;;;;;1.53;74.81;98614.28;10601337;27;20040;-77
2023/01/28 09:56:40;;;;;;;4.93;2.78;;;;;;;1.52;74.10;98601.78;10601367;27;20089;-77
2023/01/28 10:02:20;;;;;;;4.88;2.50;;;;;;;1.55;73.90;98596.03;10600881;27;20050;-77
2023/01/28 10:07:42;;;;;;;5.53;2.83;;;;;;;1.52;73.22;98607.31;10612521;27;20385;-78
2023/01/28 10:13:30;;;;;;;4.10;2.50;;;;;;;1.51;73.08;98608.56;10590710;27;20054;-77
2023/01/28 10:18:55;;;;;;;5.40;2.80;;;;;;;1.45;71.95;98614.13;10589539;27;20089;-77
2023/01/28 10:24:22;;;;;;;3.70;2.17;;;;;;;1.44;72.07;98607.09;10560584;27;20086;-78
2023/01/28 10:29:48;;;;;;;3.42;2.40;;;;;;;1.55;72.29;98611.81;10611445;27;20370;-76
2023/01/28 10:35:09;;;;;;;4.20;2.63;;;;;;;1.50;72.25;98620.81;10596263;27;20035;-77
2023/01/28 10:40:30;;;;;;;4.55;2.55;;;;;;;1.39;70.94;98616.16;10571337;27;20059;-77
2023/01/28 10:46:11;;;;;;;6.35;3.15;;;;;;;1.46;71.44;98617.63;10579552;27;20480;-76
2023/01/28 10:51:37;;;;;;;4.57;2.90;;;;;;;1.42;71.33;98629.63;10584640;27;20044;-77
2023/01/28 10:57:00;;;;;;;6.82;3.08;;;;;;;1.38;71.01;98631.19;10581157;27;20404;-76
2023/01/28 11:02:31;;;;;;;5.18;2.97;;;;;;;1.38;71.10;98637.44;10591104;27;20050;-77
2023/01/28 11:08:14;;;;;;;6.35;3.70;;;;;;;1.37;71.01;98635.94;10584267;27;20056;-76
2023/01/28 11:13:35;;;;;;;5.45;3.75;;;;;;;1.38;71.60;98634.69;10597665;27;20477;-76
2023/01/28 11:19:05;;;;;;;5.97;3.35;;;;;;;1.30;70.93;98641.22;10594931;27;20116;-78
2023/01/28 11:24:28;;;;;;;8.90;4.38;;;;;;;1.18;70.73;98640.56;10597455;27;20127;-77
2023/01/28 11:29:55;;;;;;;5.93;3.38;;;;;;;1.22;70.57;98638.28;10597158;27;20043;-77
2023/01/28 11:35:24;;;;;;;6.75;3.47;;;;;;;1.26;69.06;98640.78;10597679;27;20043;-77
2023/01/28 11:40:50;;;;;;;5.70;3.42;;;;;;;1.33;68.89;98634.69;10540889;27;20051;-78
2023/01/28 11:46:18;;;;;;;4.45;2.95;;;;;;;1.39;69.71;98649.91;10554053;28;20054;-78
2023/01/28 11:51:58;;;;;;;5.63;3.38;;;;;;;1.49;69.26;98644.09;10609005;27;20031;-77
2023/01/28 11:57:43;;;;;;;6.22;3.67;;;;;;;1.57;68.37;98650.56;10591323;27;20506;-77
2023/01/28 12:03:23;;;;;;;4.53;2.65;;;;;;;1.67;68.38;98652.47;10603254;27;20047;-77
2023/01/28 12:08:50;;;;;;;6.22;2.97;;;;;;;1.97;68.25;98649.72;10592444;27;20043;-78
2023/01/28 12:14:24;;;;;;;5.13;2.78;;;;;;;2.11;67.59;98649.81;10562648;27;20164;-76
2023/01/28 12:20:07;;;;;;;5.80;2.27;;;;;;;2.09;66.78;98644.84;10592136;27;20039;-76
2023/01/28 12:25:41;;;;;;;6.38;3.00;;;;;;;2.11;66.62;98649.81;10592534;27;20766;-75
2023/01/28 12:31:17;;;;;;;;;;;;;;;2.03;65.77;98644.16;10595784;27;20054;-77
2023/01/28 12:36:51;;;;;;;4.22;2.47;;;;;;;1.84;65.50;98648.84;10608846;27;19958;-77
2023/01/28 12:42:12;;;;;;;4.95;2.55;;;;;;;1.77;65.87;98643.88;10609162;27;20084;-77
2023/01/28 12:47:35;;;;;;;4.45;2.72;;;;;;;1.62;65.21;98649.75;10608702;28;20032;-77
2023/01/28 12:52:58;;;;;;;4.45;2.20;;;;;;;1.54;65.52;98651.56;10593095;28;20043;-76
2023/01/28 12:58:29;;;;;;;4.60;2.33;;;;;;;1.37;64.51;98651.69;10580231;28;20082;-77
2023/01/28 13:04:16;;;;;;;4.93;2.55;;;;;;;1.36;66.29;98645.44;10581113;28;20050;-76
2023/01/28 13:09:37;;;;;;;3.53;2.20;;;;;;;1.50;65.90;98651.09;10596062;28;20069;-76
2023/01/28 13:14:58;;;;;;;3.10;2.10;;;;;;;1.47;64.81;98658.38;10612994;27;20047;-77
2023/01/28 13:20:44;;;;;;;4.32;2.15;;;;;;;1.53;64.94;98663.81;10617052;27;20493;-78
2023/01/28 13:26:18;;;;;;;4.35;2.17;;;;;;;1.59;64.45;98656.28;10611313;27;20075;-77
2023/01/28 13:31:44;;;;;;;5.80;2.30;;;;;;;1.56;63.75;98657.31;10617464;27;20047;-77
2023/01/28 13:37:23;;;;;;;5.60;2.25;;;;;;;1.71;62.47;98668.69;10615925;27;20269;-77
2023/01/28 13:42:44;;;;;;;6.82;1.58;;;;;;;2.00;62.43;98662.44;10608763;27;20495;-77
2023/01/28 13:48:12;;;;;;;3.78;1.98;;;;;;;2.06;61.96;98673.41;10559247;28;20470;-77
2023/01/28 13:53:43;;;;;;;3.47;1.77;;;;;;;1.90;62.68;98674.31;10558730;28;20047;-77
2023/01/28 13:59:41;;;;;;;3.40;1.98;;;;;;;1.71;61.33;98679.72;10545397;28;20043;-77
2023/01/28 14:05:26;;;;;;;5.05;2.00;;;;;;;1.51;62.44;98675.34;10571964;28;20046;-78
2023/01/28 14:11:05;;;;;;;4.50;1.95;;;;;;;1.48;60.66;98689.38;10545678;28;20043;-79
2023/01/28 14:16:34;;;;;;;3.05;1.67;;;;;;;1.27;59.74;98684.25;10558114;28;20046;-79
2023/01/28 14:21:56;;;;;;;4.03;1.98;;;;;;;1.14;61.88;98700.56;10517142;28;20139;-77
2023/01/28 14:27:21;;;;;;;4.28;1.88;;;;;;;1.04;61.83;98699.38;10514381;28;20036;-78
2023/01/28 14:32:46;;;;;;;3.22;1.85;;;;;;;0.96;60.90;98717.66;10571046;28;20055;-78
2023/01/28 14:38:08;;;;;;;5.60;1.80;;;;;;;0.77;61.51;98709.22;10551251;28;20050;-77
2023/01/28 14:43:29;;;;;;;4.20;2.30;;;;;;;0.70;61.68;98721.50;10541633;28;20504;-77
2023/01/28 14:49:15;;;;;;;5.30;2.30;;;;;;;0.48;60.70;98730.56;10599012;27;20036;-77
2023/01/28 14:55:05;;;;;;;4.72;2.33;;;;;;;0.28;60.86;98739.78;10628988;27;20053;-77
2023/01/28 15:00:27;;;;;;;4.85;2.53;;;;;;;0.19;61.62;98742.06;10629026;27;20121;-78
2023/01/28 15:05:48;;;;;;;3.40;1.90;;;;;;;0.16;60.65;98748.56;10626756;27;20523;-78
2023/01/28 15:11:12;;;;;;;4.85;2.08;;;;;;;0.06;61.23;98744.56;10611826;27;20039;-78
2023/01/28 15:16:34;;;;;;;5.30;2.38;;;;;;;-0.12;61.54;98754.03;10626281;27;20049;-77
2023/01/28 15:22:03;;;;;;;4.63;2.08;;;;;;;-0.20;61.32;98753.03;10626614;27;20043;-77
2023/01/28 15:27:28;;;;;;;5.47;2.42;;;;;;;-0.19;61.34;98751.78;10625017;27;20050;-77
2023/01/28 15:32:57;;;;;;;4.88;2.50;;;;;;;-0.18;61.71;98756.03;10638722;27;20038;-78
2023/01/28 15:38:19;;;;;;;4.68;2.03;;;;;;;-0.23;60.66;98757.50;10625137;27;20042;-78
2023/01/28 15:43:42;;;;;;;6.13;2.80;;;;;;;-0.26;60.31;98763.25;10625569;27;20404;-77
2023/01/28 15:49:03;;;;;;;5.22;2.28;;;;;;;-0.30;60.85;98774.47;10611072;27;20419;-77
2023/01/28 15:54:24;;;;;;;4.65;2.10;;;;;;;-0.35;60.95;98784.19;10624785;27;20039;-77
2023/01/28 15:59:46;;;;;;;4.22;2.13;;;;;;;-0.40;60.84;98793.16;10625004;27;20045;-78
2023/01/28 16:05:26;;;;;;;4.45;2.45;;;;;;;-0.38;60.96;98790.69;10638512;27;20095;-76
2023/01/28 16:10:52;;;;;;;5.93;2.63;;;;;;;-0.37;61.64;98805.88;10623897;27;20031;-74
2023/01/28 16:16:13;;;;;;;5.05;2.50;;;;;;;-0.46;60.79;98783.44;10608712;27;20053;-77
2023/01/28 16:21:43;;;;;;;4.05;2.47;;;;;;;-0.53;60.76;98797.59;10617322;27;20035;-78
2023/01/28 16:27:08;;;;;;;3.88;2.60;;;;;;;-0.49;60.29;98790.63;10609844;27;20566;-77
2023/01/28 16:32:32;;;;;;;6.20;2.90;;;;;;;-0.53;60.49;98805.84;10609712;27;20464;-77
2023/01/28 16:37:53;;;;;;;5.50;3.00;;;;;;;-0.50;60.49;98810.31;10652293;27;20038;-77
2023/01/28 16:43:14;;;;;;;4.53;2.53;;;;;;;-0.49;61.18;98795.38;10622291;27;20334;-77
2023/01/28 16:48:36;;;;;;;5.53;2.80;;;;;;;-0.43;61.45;98810.59;10643351;27;20507;-77
2023/01/28 16:53:57;;;;;;;5.28;2.40;;;;;;;-0.45;60.85;98809.59;10637371;27;20046;-78
2023/01/28 16:59:18;;;;;;;4.90;2.45;;;;;;;-0.43;60.21;98807.84;10637099;27;20042;-77
2023/01/28 17:04:39;;;;;;;4.43;2.15;;;;;;;-0.45;60.31;98807.63;10636808;27;20065;-77
2023/01/28 17:10:00;;;;;;;3.53;1.88;;;;;;;-0.53;59.54;98805.84;10621365;27;20460;-77
2023/01/28 17:15:21;;;;;;;6.10;1.88;;;;;;;-0.56;59.81;98799.34;10613771;27;20103;-79
2023/01/28 17:20:42;;;;;;;4.50;2.22;;;;;;;-0.62;59.96;98809.53;10646442;27;20084;-77
2023/01/28 17:26:04;;;;;;;6.57;2.30;;;;;;;-0.69;60.44;98793.56;10604939;27;20092;-77
2023/01/28 17:31:25;;;;;;;3.10;1.83;;;;;;;-0.73;59.94;98793.06;10636599;27;20074;-78
2023/01/28 17:36:46;;;;;;;4.35;2.05;;;;;;;-0.79;60.31;98797.75;10636736;27;20054;-78
2023/01/28 17:42:07;;;;;;;5.35;2.03;;;;;;;-0.90;60.10;98807.44;10593889;27;20111;-78
2023/01/28 17:47:29;;;;;;;4.15;2.10;;;;;;;-0.91;59.68;98816.91;10601086;27;20031;-77
2023/01/28 17:52:54;;;;;;;3.40;1.98;;;;;;;-0.88;59.97;98823.38;10629890;27;20661;-78
2023/01/28 17:58:15;;;;;;;4.78;2.20;;;;;;;-0.83;59.85;98827.41;10624993;27;20042;-78
2023/01/28 18:03:36;;;;;;;4.05;1.83;;;;;;;-0.90;60.29;98818.41;10584920;27;20062;-77
2023/01/28 18:08:57;;;;;;;3.67;1.90;;;;;;;-0.98;59.70;98813.88;10629051;27;20042;-78
2023/01/28 18:14:18;;;;;;;4.55;1.73;;;;;;;-1.02;60.06;98827.81;10614690;27;20137;-78
2023/01/28 18:19:38;;;;;;;4.32;2.22;;;;;;;-0.90;59.90;98834.09;10600492;27;20043;-78
2023/01/28 18:24:59;;;;;;;5.72;2.40;;;;;;;-0.92;60.03;98836.59;10585796;27;20047;-78
2023/01/28 18:30:20;;;;;;;2.55;1.70;;;;;;;-1.01;59.92;98843.00;10585993;27;20039;-78
2023/01/28 18:35:44;;;;;;;3.13;1.95;;;;;;;-0.98;59.32;98844.75;10600839;27;20058;-77
2023/01/28 18:41:05;;;;;;;4.55;2.03;;;;;;;-0.90;59.96;98851.28;10621041;27;20055;-78
2023/01/28 18:46:25;;;;;;;5.18;2.17;;;;;;;-0.82;59.85;98851.59;10598605;27;20046;-78
2023/01/28 18:51:46;;;;;;;5.18;2.08;;;;;;;-0.75;60.26;98842.16;10582247;27;20473;-78
2023/01/28 18:57:07;;;;;;;3.15;1.85;;;;;;;-0.77;59.29;98861.06;10596747;27;20054;-77
2023/01/28 19:02:28;;;;;;;4.70;2.17;;;;;;;-0.74;60.12;98876.56;10582406;27;20058;-78
2023/01/28 19:07:50;;;;;;;8.32;2.22;;;;;;;-0.71;59.46;98875.56;10583824;27;20131;-78
2023/01/28 19:13:10;;;;;;;5.28;2.25;;;;;;;-0.73;59.23;98880.78;10583989;27;20400;-78
2023/01/28 19:18:31;;;;;;;5.32;2.33;;;;;;;-0.79;59.86;98877.25;10569875;27;20046;-78
2023/01/28 19:23:54;;;;;;;5.28;2.40;;;;;;;-0.74;59.81;98884.78;10583733;27;20043;-78
2023/01/28 19:29:15;;;;;;;4.97;1.98;;;;;;;-0.73;59.19;98876.06;10598428;27;20050;-78
2023/01/28 19:34:36;;;;;;;4.60;1.88;;;;;;;-0.74;59.85;98882.78;10583366;27;20056;-78
2023/01/28 19:39:56;;;;;;;5.82;2.38;;;;;;;-0.73;59.44;98883.53;10597532;27;20043;-78
2023/01/28 19:45:18;;;;;;;3.92;2.22;;;;;;;-0.75;59.60;98883.28;10582705;27;20058;-78
2023/01/28 19:50:39;;;;;;;4.70;2.45;;;;;;;-0.73;59.58;98889.78;10597513;27;20126;-78
2023/01/28 19:56:02;;;;;;;5.28;2.35;;;;;;;-0.75;60.00;98895.00;10568335;27;20053;-78
2023/01/28 20:01:25;;;;;;;5.05;2.13;;;;;;;-0.79;59.14;98899.19;10582266;27;20046;-78
2023/01/28 20:06:49;;;;;;;3.35;2.05;;;;;;;-0.82;60.04;98897.44;10583695;27;20054;-78
2023/01/28 20:12:10;;;;;;;4.95;2.38;;;;;;;-0.78;59.45;98897.94;10581798;27;20046;-78
2023/01/28 20:17:31;;;;;;;5.20;2.17;;;;;;;-0.75;59.58;98913.44;10567851;27;20212;-78
2023/01/28 20:22:52;;;;;;;3.95;2.30;;;;;;;-0.74;59.86;98910.22;10567069;27;20043;-77
2023/01/28 20:28:15;;;;;;;5.45;2.65;;;;;;;-0.76;59.40;98915.44;10595797;27;20042;-78
2023/01/28 20:33:36;;;;;;;4.50;2.22;;;;;;;-0.75;59.57;98918.94;10581288;27;20039;-78
2023/01/28 20:38:57;;;;;;;5.40;2.97;;;;;;;-0.75;59.51;98921.66;10581064;27;20428;-78
2023/01/28 20:44:19;;;;;;;3.72;2.25;;;;;;;-0.78;59.42;98922.63;10594609;27;20039;-78
2023/01/28 20:49:39;;;;;;;3.97;2.22;;;;;;;-0.80;59.65;98923.13;10608396;28;20481;-76
2023/01/28 20:55:01;;;;;;;4.05;2.20;;;;;;;-0.85;58.82;98923.09;10609536;27;20038;-76
2023/01/28 21:00:22;;;;;;;3.83;2.15;;;;;;;-0.85;58.73;98923.09;10637398;27;20035;-76
2023/01/28 21:05:43;;;;;;;4.82;2.55;;;;;;;-0.90;59.14;98914.34;10623123;27;20043;-76
2023/01/28 21:11:05;;;;;;;5.25;2.22;;;;;;;-0.93;59.48;98918.06;10608963;27;20039;-76
2023/01/28 21:16:27;;;;;;;4.13;2.47;;;;;;;-0.93;59.18;98926.28;10637291;27;20043;-76
2023/01/28 21:21:47;;;;;;;3.15;2.45;;;;;;;-0.90;59.63;98921.81;10622850;27;20035;-76
2023/01/28 21:27:08;;;;;;;4.53;2.80;;;;;;;-0.90;59.75;98919.06;10622924;27;20045;-76
2023/01/28 21:32:29;;;;;;;6.50;3.25;;;;;;;-0.91;59.95;98923.81;10622718;27;20537;-77
2023/01/28 21:37:50;;;;;;;7.40;3.17;;;;;;;-0.95;60.75;98920.56;10615326;27;20043;-76
2023/01/28 21:43:11;;;;;;;8.35;3.15;;;;;;;-1.01;60.55;98917.00;10658500;27;20438;-76
2023/01/28 21:48:39;;;;;;;5.25;3.22;;;;;;;-0.96;60.56;98924.53;10631726;27;20039;-76
2023/01/28 21:54:03;;;;;;;5.80;3.15;;;;;;;-1.01;59.97;98930.72;10630201;27;20479;-77
2023/01/28 21:59:28;;;;;;;7.95;3.45;;;;;;;-0.95;60.74;98931.50;10629528;27;20043;-76
2023/01/28 22:04:59;;;;;;;6.53;3.83;;;;;;;-1.00;60.64;98942.44;10621558;27;20042;-76
2023/01/28 22:10:20;;;;;;;7.00;3.85;;;;;;;-1.00;60.92;98940.44;10636693;27;20045;-76
2023/01/28 22:15:41;;;;;;;6.85;3.15;;;;;;;-1.02;60.90;98948.41;10625327;27;20396;-76
2023/01/28 22:21:04;;;;;;;7.05;4.10;;;;;;;-1.07;60.84;98954.56;10625808;27;20038;-76
2023/01/28 22:26:25;;;;;;;6.38;4.00;;;;;;;-1.10;61.53;98944.59;10628100;27;20073;-76
2023/01/28 22:31:46;;;;;;;6.93;4.00;;;;;;;-1.08;61.57;98944.84;10628529;27;20039;-76
2023/01/28 22:37:09;;;;;;;10.25;4.00;;;;;;;-1.13;61.58;98947.56;10614432;27;20058;-76
2023/01/28 22:42:30;;;;;;;7.95;4.10;;;;;;;-1.12;61.91;98941.59;10628387;27;20082;-76
2023/01/28 22:47:51;;;;;;;6.50;3.40;;;;;;;-1.12;61.23;98924.41;10613215;27;20043;-76
2023/01/28 22:53:12;;;;;;;5.45;3.20;;;;;;;-1.08;61.16;98933.91;10613270;27;20039;-76
2023/01/28 22:58:33;;;;;;;5.43;3.10;;;;;;;-1.11;61.37;98923.91;10641676;27;20070;-77
2023/01/28 23:03:55;;;;;;;6.10;3.53;;;;;;;-1.07;61.98;98912.72;10607232;22;20070;-75
2023/01/28 23:09:16;;;;;;;5.55;3.03;;;;;;;-1.05;61.42;98923.97;10570096;28;20484;-75
2023/01/28 23:25:56;;;;;;;5.72;2.30;;;;;;;-1.05;60.53;98910.25;10545960;28;20055;-76
2023/01/28 23:31:16;;;;;;;4.63;2.08;;;;;;;-1.02;60.59;98903.81;10541011;28;20412;-75
2023/01/28 23:36:37;;;;;;;5.55;2.78;;;;;;;-1.02;60.20;98909.28;10554465;28;20040;-76
2023/01/28 23:42:07;;;;;;;7.07;2.95;;;;;;;-1.04;60.89;98909.03;10540231;28;20121;-76
2023/01/28 23:47:28;;;;;;;6.30;2.95;;;;;;;-1.03;60.53;98919.50;10554820;28;20067;-75
2023/01/28 23:52:49;;;;;;;5.30;2.42;;;;;;;-1.05;60.90;98911.00;10553739;28;20049;-75
2023/01/28 23:58:10;;;;;;;4.05;2.25;;;;;;;-1.04;60.31;98904.28;10538698;28;20063;-76
